createdAt,value
2016-06-13T00:00:12.606Z,21.1
2016-06-13T00:01:12.657Z,21.1
2016-06-13T00:02:12.660Z,21.14
2016-06-13T00:03:12.693Z,21.12
2016-06-13T00:04:12.743Z,21.13
2016-06-13T00:05:12.591Z,21.13
2016-06-13T00:06:12.765Z,21.16
2016-06-13T00:07:12.800Z,21.06
2016-06-13T00:08:12.817Z,21.06
2016-06-13T00:09:12.853Z,21.1
2016-06-13T00:10:12.871Z,21.03
2016-06-13T00:11:13.171Z,21.09
2016-06-13T00:12:12.955Z,21.13
2016-06-13T00:13:13.006Z,21.12
2016-06-13T00:14:12.977Z,21.06
2016-06-13T00:15:12.996Z,21.14
2016-06-13T00:16:13.124Z,21.13
2016-06-13T00:17:13.081Z,21.13
2016-06-13T00:18:13.631Z,21.09
2016-06-13T00:19:13.101Z,21.1
2016-06-13T00:20:13.152Z,21.03
2016-06-13T00:21:13.171Z,21.07
2016-06-13T00:22:13.189Z,21.14
2016-06-13T00:23:13.224Z,21.07
2016-06-13T00:24:13.243Z,21.06
2016-06-13T00:25:13.277Z,21.1
2016-06-13T00:26:13.311Z,21.1
2016-06-13T00:27:13.329Z,21.09
2016-06-13T00:28:13.348Z,21.1
2016-06-13T00:29:13.227Z,21.07
2016-06-13T00:30:13.401Z,21.03
2016-06-13T00:31:13.435Z,21.13
2016-06-13T00:32:13.455Z,21.06
2016-06-13T00:33:13.489Z,21.07
2016-06-13T00:34:13.508Z,20.99
2016-06-13T00:35:13.526Z,21.12
2016-06-13T00:36:13.404Z,21.04
2016-06-13T00:37:13.626Z,21.09
2016-06-13T00:38:13.613Z,20.99
2016-06-13T00:39:13.648Z,21.06
2016-06-13T00:40:13.683Z,20.99
2016-06-13T00:41:13.857Z,21.04
2016-06-13T00:42:13.719Z,21.12
2016-06-13T00:43:13.739Z,21.13
2016-06-13T00:44:13.773Z,21.09
2016-06-13T00:45:13.791Z,20.95
2016-06-13T00:46:13.842Z,21.06
2016-06-13T00:47:13.859Z,21.06
2016-06-13T00:48:13.879Z,20.98
2016-06-13T00:49:13.897Z,20.98
2016-06-13T00:50:13.947Z,21.1
2016-06-13T00:51:13.810Z,21.07
2016-06-13T00:52:13.985Z,21.09
2016-06-13T00:53:14.003Z,21.01
2016-06-13T00:54:14.038Z,21.09
2016-06-13T00:55:14.056Z,21.09
2016-06-13T00:56:14.091Z,20.97
2016-06-13T00:57:14.110Z,21.07
2016-06-13T00:58:14.144Z,21.03
2016-06-13T00:59:14.163Z,21.12
2016-06-13T01:00:14.197Z,21.06
2016-06-13T01:01:14.059Z,21.07
2016-06-13T01:02:14.250Z,21.03
2016-06-13T01:03:14.269Z,21.09
2016-06-13T01:04:14.147Z,21.07
2016-06-13T01:05:14.322Z,21.06
2016-06-13T01:06:14.356Z,21.03
2016-06-13T01:07:14.374Z,21.03
2016-06-13T01:08:14.410Z,21.09
2016-06-13T01:09:14.427Z,21.03
2016-06-13T01:10:14.446Z,21.07
2016-06-13T01:11:14.449Z,21.06
2016-06-13T01:12:14.500Z,21.09
2016-06-13T01:13:15.581Z,21.03
2016-06-13T01:14:14.552Z,20.98
2016-06-13T01:15:14.587Z,20.99
2016-06-13T01:16:14.684Z,21.01
2016-06-13T01:17:14.702Z,20.97
2016-06-13T01:18:14.611Z,20.94
2016-06-13T01:19:14.693Z,20.98
2016-06-13T01:20:14.711Z,21.03
2016-06-13T01:21:14.745Z,21.04
2016-06-13T01:22:14.765Z,21.1
2016-06-13T01:23:14.799Z,20.91
2016-06-13T01:24:14.833Z,21.04
2016-06-13T01:25:14.851Z,21.03
2016-06-13T01:26:14.901Z,20.92
2016-06-13T01:27:14.905Z,20.98
2016-06-13T01:28:14.939Z,20.94
2016-06-13T01:29:14.958Z,20.99
2016-06-13T01:30:14.977Z,20.94
2016-06-13T01:31:15.011Z,20.92
2016-06-13T01:32:15.029Z,20.89
2016-06-13T01:33:15.064Z,20.94
2016-06-13T01:34:15.083Z,20.94
2016-06-13T01:35:15.101Z,20.92
2016-06-13T01:36:15.151Z,20.91
2016-06-13T01:37:15.014Z,20.97
2016-06-13T01:38:15.189Z,20.92
2016-06-13T01:39:15.223Z,20.98
2016-06-13T01:40:15.241Z,20.97
2016-06-13T01:41:15.729Z,20.94
2016-06-13T01:42:15.310Z,20.97
2016-06-13T01:43:15.313Z,20.95
2016-06-13T01:44:15.223Z,20.95
2016-06-13T01:45:15.383Z,20.95
2016-06-13T01:46:15.432Z,20.97
2016-06-13T01:47:15.435Z,20.88
2016-06-13T01:48:15.453Z,20.98
2016-06-13T01:49:15.472Z,20.92
2016-06-13T01:50:15.507Z,20.88
2016-06-13T01:51:15.525Z,20.88
2016-06-13T01:52:15.559Z,20.85
2016-06-13T01:53:15.578Z,20.99
2016-06-13T01:54:15.613Z,20.88
2016-06-13T01:55:15.631Z,20.92
2016-06-13T01:56:16.166Z,20.87
2016-06-13T01:57:15.685Z,20.94
2016-06-13T01:58:15.703Z,20.92
2016-06-13T01:59:15.737Z,20.91
2016-06-13T02:00:15.615Z,20.97
2016-06-13T02:01:15.791Z,20.98
2016-06-13T02:02:15.825Z,20.94
2016-06-13T02:03:15.843Z,20.92
2016-06-13T02:04:15.878Z,20.97
2016-06-13T02:05:15.896Z,20.92
2016-06-13T02:06:15.931Z,20.94
2016-06-13T02:07:15.950Z,20.92
2016-06-13T02:08:15.968Z,20.91
2016-06-13T02:09:16.003Z,20.92
2016-06-13T02:10:16.037Z,20.8
2016-06-13T02:11:16.259Z,20.87
2016-06-13T02:12:16.090Z,20.87
2016-06-13T02:13:16.109Z,20.89
2016-06-13T02:14:16.143Z,20.92
2016-06-13T02:15:16.162Z,20.92
2016-06-13T02:16:16.180Z,20.85
2016-06-13T02:17:16.214Z,20.88
2016-06-13T02:18:16.233Z,20.87
2016-06-13T02:19:16.268Z,20.92
2016-06-13T02:20:16.287Z,20.95
2016-06-13T02:21:16.321Z,20.91
2016-06-13T02:22:16.340Z,20.99
2016-06-13T02:23:16.358Z,20.84
2016-06-13T02:24:16.408Z,20.84
2016-06-13T02:25:16.427Z,20.91
2016-06-13T02:26:16.477Z,20.91
2016-06-13T02:27:16.495Z,20.94
2016-06-13T02:28:16.498Z,20.97
2016-06-13T02:29:16.518Z,20.87
2016-06-13T02:30:16.567Z,20.87
2016-06-13T02:31:16.586Z,20.89
2016-06-13T02:32:16.605Z,20.88
2016-06-13T02:33:16.624Z,20.92
2016-06-13T02:34:16.657Z,20.88
2016-06-13T02:35:16.677Z,20.88
2016-06-13T02:36:16.711Z,20.88
2016-06-13T02:37:16.729Z,20.84
2016-06-13T02:38:16.764Z,20.91
2016-06-13T02:39:16.782Z,20.94
2016-06-13T02:40:16.817Z,20.94
2016-06-13T02:41:16.851Z,20.85
2016-06-13T02:42:16.869Z,20.89
2016-06-13T02:43:16.889Z,20.92
2016-06-13T02:44:16.923Z,20.87
2016-06-13T02:45:16.800Z,20.89
2016-06-13T02:46:16.976Z,20.95
2016-06-13T02:47:16.995Z,20.87
2016-06-13T02:48:17.013Z,20.92
2016-06-13T02:49:17.047Z,20.89
2016-06-13T02:50:17.065Z,20.87
2016-06-13T02:51:17.116Z,20.87
2016-06-13T02:52:17.119Z,20.88
2016-06-13T02:53:16.997Z,20.84
2016-06-13T02:54:17.172Z,20.88
2016-06-13T02:55:17.223Z,20.84
2016-06-13T02:56:17.928Z,20.87
2016-06-13T02:57:17.275Z,20.92
2016-06-13T02:58:17.294Z,20.89
2016-06-13T02:59:17.329Z,20.85
2016-06-13T03:00:17.332Z,20.88
2016-06-13T03:01:17.365Z,20.88
2016-06-13T03:02:17.385Z,20.89
2016-06-13T03:03:17.263Z,20.84
2016-06-13T03:04:17.437Z,20.91
2016-06-13T03:05:17.472Z,20.88
2016-06-13T03:06:17.490Z,20.91
2016-06-13T03:07:17.525Z,20.8
2016-06-13T03:08:17.544Z,20.98
2016-06-13T03:09:17.609Z,20.87
2016-06-13T03:10:17.612Z,20.91
2016-06-13T03:11:17.647Z,20.85
2016-06-13T03:12:17.947Z,20.84
2016-06-13T03:13:17.699Z,20.94
2016-06-13T03:14:17.703Z,20.91
2016-06-13T03:15:17.721Z,20.85
2016-06-13T03:16:17.755Z,20.91
2016-06-13T03:17:17.790Z,20.89
2016-06-13T03:18:17.824Z,20.88
2016-06-13T03:19:17.827Z,20.91
2016-06-13T03:20:17.861Z,20.88
2016-06-13T03:21:17.897Z,20.84
2016-06-13T03:22:17.914Z,20.87
2016-06-13T03:23:17.933Z,20.98
2016-06-13T03:24:17.967Z,20.87
2016-06-13T03:25:18.002Z,20.88
2016-06-13T03:26:18.254Z,20.91
2016-06-13T03:27:18.108Z,20.97
2016-06-13T03:28:18.136Z,20.97
2016-06-13T03:29:18.195Z,20.98
2016-06-13T03:30:18.270Z,20.92
2016-06-13T03:31:18.328Z,20.91
2016-06-13T03:32:18.390Z,20.91
2016-06-13T03:33:18.421Z,20.87
2016-06-13T03:34:18.471Z,20.82
2016-06-13T03:35:18.534Z,20.87
2016-06-13T03:36:18.381Z,20.88
2016-06-13T03:37:18.580Z,20.88
2016-06-13T03:38:18.604Z,20.91
2016-06-13T03:39:18.644Z,20.88
2016-06-13T03:40:18.699Z,20.89
2016-06-13T03:41:19.005Z,20.84
2016-06-13T03:42:19.229Z,20.82
2016-06-13T03:43:18.766Z,20.82
2016-06-13T03:44:18.818Z,20.91
2016-06-13T03:45:18.823Z,20.87
2016-06-13T03:46:18.843Z,20.94
2016-06-13T03:47:18.879Z,20.82
2016-06-13T03:48:18.915Z,20.85
2016-06-13T03:49:18.933Z,20.85
2016-06-13T03:50:18.797Z,20.87
2016-06-13T03:51:18.816Z,20.88
2016-06-13T03:52:18.852Z,20.92
2016-06-13T03:53:19.041Z,20.98
2016-06-13T03:54:18.904Z,20.91
2016-06-13T03:55:19.094Z,20.85
2016-06-13T03:56:19.317Z,20.85
2016-06-13T03:57:19.460Z,20.91
2016-06-13T03:58:19.198Z,20.92
2016-06-13T03:59:19.201Z,20.98
2016-06-13T04:00:19.063Z,20.92
2016-06-13T04:01:19.238Z,20.94
2016-06-13T04:02:19.272Z,20.85
2016-06-13T04:03:19.292Z,20.84
2016-06-13T04:04:19.325Z,20.91
2016-06-13T04:05:19.345Z,20.92
2016-06-13T04:06:19.394Z,20.98
2016-06-13T04:07:19.413Z,20.85
2016-06-13T04:08:19.447Z,20.88
2016-06-13T04:09:19.449Z,20.91
2016-06-13T04:10:19.485Z,20.97
2016-06-13T04:11:20.269Z,20.88
2016-06-13T04:12:19.913Z,20.94
2016-06-13T04:13:19.650Z,20.94
2016-06-13T04:14:19.606Z,20.87
2016-06-13T04:15:19.609Z,20.99
2016-06-13T04:16:19.644Z,20.87
2016-06-13T04:17:19.662Z,20.77
2016-06-13T04:18:19.681Z,20.91
2016-06-13T04:19:19.716Z,20.95
2016-06-13T04:20:19.734Z,20.84
2016-06-13T04:21:19.768Z,20.94
2016-06-13T04:22:19.630Z,20.92
2016-06-13T04:23:19.821Z,20.94
2016-06-13T04:24:19.840Z,20.85
2016-06-13T04:25:19.874Z,20.95
2016-06-13T04:26:20.423Z,20.94
2016-06-13T04:27:20.318Z,20.97
2016-06-13T04:28:19.946Z,20.95
2016-06-13T04:29:19.980Z,20.98
2016-06-13T04:30:19.999Z,20.88
2016-06-13T04:31:20.034Z,21.07
2016-06-13T04:32:20.052Z,21.09
2016-06-13T04:33:20.086Z,21.07
2016-06-13T04:34:19.792Z,21.09
2016-06-13T04:35:20.139Z,21.1
2016-06-13T04:36:20.158Z,21.09
2016-06-13T04:37:20.176Z,21.16
2016-06-13T04:38:20.211Z,21.1
2016-06-13T04:39:20.230Z,21.1
2016-06-13T04:40:20.264Z,21.19
2016-06-13T04:41:20.283Z,21.17
2016-06-13T04:42:20.317Z,21.21
2016-06-13T04:43:20.383Z,21.17
2016-06-13T04:44:20.371Z,21.16
2016-06-13T04:45:20.404Z,21.16
2016-06-13T04:46:20.423Z,21.21
2016-06-13T04:47:20.442Z,21.28
2016-06-13T04:48:20.476Z,21.21
2016-06-13T04:49:20.494Z,21.27
2016-06-13T04:50:20.513Z,21.16
2016-06-13T04:51:20.548Z,21.16
2016-06-13T04:52:20.582Z,21.16
2016-06-13T04:53:20.601Z,21.12
2016-06-13T04:54:20.620Z,21.17
2016-06-13T04:55:20.654Z,21.19
2016-06-13T04:56:20.688Z,21.19
2016-06-13T04:57:20.598Z,21.28
2016-06-13T04:58:20.758Z,21.22
2016-06-13T04:59:20.760Z,21.24
2016-06-13T05:00:20.778Z,21.21
2016-06-13T05:01:20.829Z,21.22
2016-06-13T05:02:20.848Z,21.21
2016-06-13T05:03:20.866Z,21.17
2016-06-13T05:04:20.885Z,21.28
2016-06-13T05:05:20.918Z,21.17
2016-06-13T05:06:20.938Z,21.16
2016-06-13T05:07:20.816Z,21.17
2016-06-13T05:08:20.991Z,21.13
2016-06-13T05:09:21.025Z,21.13
2016-06-13T05:10:21.044Z,21.25
2016-06-13T05:11:21.094Z,21.19
2016-06-13T05:12:20.956Z,21.19
2016-06-13T05:13:21.131Z,21.24
2016-06-13T05:14:21.150Z,21.24
2016-06-13T05:15:21.185Z,21.19
2016-06-13T05:16:21.202Z,21.21
2016-06-13T05:17:21.253Z,21.24
2016-06-13T05:18:21.256Z,21.21
2016-06-13T05:19:21.275Z,21.25
2016-06-13T05:20:21.309Z,21.25
2016-06-13T05:21:21.359Z,21.27
2016-06-13T05:22:21.362Z,21.24
2016-06-13T05:23:21.240Z,21.25
2016-06-13T05:24:21.415Z,21.25
2016-06-13T05:25:21.293Z,21.22
2016-06-13T05:26:21.484Z,21.34
2016-06-13T05:27:21.378Z,21.31
2016-06-13T05:28:21.521Z,21.29
2016-06-13T05:29:21.555Z,21.37
2016-06-13T05:30:21.574Z,21.29
2016-06-13T05:31:21.593Z,21.32
2016-06-13T05:32:21.627Z,21.32
2016-06-13T05:33:21.662Z,21.31
2016-06-13T05:34:21.680Z,21.4
2016-06-13T05:35:21.714Z,21.35
2016-06-13T05:36:21.733Z,21.43
2016-06-13T05:37:21.752Z,21.38
2016-06-13T05:38:21.786Z,21.35
2016-06-13T05:39:21.820Z,21.34
2016-06-13T05:40:21.839Z,21.32
2016-06-13T05:41:21.857Z,21.34
2016-06-13T05:42:22.346Z,21.37
2016-06-13T05:43:21.927Z,21.29
2016-06-13T05:44:21.946Z,21.35
2016-06-13T05:45:21.964Z,21.38
2016-06-13T05:46:22.014Z,21.32
2016-06-13T05:47:22.033Z,21.35
2016-06-13T05:48:22.067Z,21.32
2016-06-13T05:49:22.070Z,21.37
2016-06-13T05:50:22.104Z,21.34
2016-06-13T05:51:22.138Z,21.34
2016-06-13T05:52:22.157Z,21.42
2016-06-13T05:53:22.176Z,21.35
2016-06-13T05:54:22.055Z,21.38
2016-06-13T05:55:22.230Z,21.37
2016-06-13T05:56:22.263Z,21.35
2016-06-13T05:57:23.157Z,21.4
2016-06-13T05:58:22.317Z,21.42
2016-06-13T05:59:22.335Z,21.29
2016-06-13T06:00:22.370Z,21.38
2016-06-13T06:01:22.387Z,21.35
2016-06-13T06:02:22.422Z,21.38
2016-06-13T06:03:22.441Z,21.43
2016-06-13T06:04:22.475Z,21.31
2016-06-13T06:05:22.510Z,21.32
2016-06-13T06:06:22.529Z,21.32
2016-06-13T06:07:22.391Z,21.44
2016-06-13T06:08:22.581Z,21.35
2016-06-13T06:09:22.600Z,21.38
2016-06-13T06:10:22.635Z,21.35
2016-06-13T06:11:22.654Z,21.32
2016-06-13T06:12:22.718Z,21.37
2016-06-13T06:13:22.956Z,21.37
2016-06-13T06:14:22.741Z,21.38
2016-06-13T06:15:22.775Z,21.32
2016-06-13T06:16:22.794Z,21.38
2016-06-13T06:17:22.828Z,21.31
2016-06-13T06:18:22.846Z,21.35
2016-06-13T06:19:22.881Z,21.4
2016-06-13T06:20:22.899Z,21.34
2016-06-13T06:21:22.934Z,21.37
2016-06-13T06:22:22.952Z,21.42
2016-06-13T06:23:22.987Z,21.4
2016-06-13T06:24:23.006Z,21.4
2016-06-13T06:25:23.024Z,21.38
2016-06-13T06:26:23.059Z,21.35
2016-06-13T06:27:23.859Z,21.31
2016-06-13T06:28:23.112Z,21.4
2016-06-13T06:29:23.130Z,21.32
2016-06-13T06:30:23.165Z,21.24
2016-06-13T06:31:23.183Z,21.21
2016-06-13T06:32:23.218Z,21.22
2016-06-13T06:33:23.236Z,21.28
2016-06-13T06:34:23.115Z,21.31
2016-06-13T06:35:23.290Z,21.27
2016-06-13T06:36:23.340Z,21.24
2016-06-13T06:37:23.358Z,21.22
2016-06-13T06:38:23.220Z,21.28
2016-06-13T06:39:23.411Z,21.28
2016-06-13T06:40:23.430Z,21.21
2016-06-13T06:41:23.449Z,21.24
2016-06-13T06:42:23.842Z,21.19
2016-06-13T06:43:23.533Z,21.25
2016-06-13T06:44:23.536Z,21.29
2016-06-13T06:45:23.554Z,21.22
2016-06-13T06:46:23.589Z,21.29
2016-06-13T06:47:23.608Z,21.24
2016-06-13T06:48:23.642Z,21.29
2016-06-13T06:49:23.677Z,21.29
2016-06-13T06:50:23.694Z,21.17
2016-06-13T06:51:23.714Z,21.16
2016-06-13T06:52:23.748Z,21.16
2016-06-13T06:53:23.767Z,21.17
2016-06-13T06:54:23.801Z,21.17
2016-06-13T06:55:23.819Z,21.16
2016-06-13T06:56:23.854Z,21.17
2016-06-13T06:57:23.888Z,21.22
2016-06-13T06:58:23.907Z,21.22
2016-06-13T06:59:23.926Z,21.17
2016-06-13T07:00:23.960Z,21.13
2016-06-13T07:01:23.979Z,21.16
2016-06-13T07:02:24.013Z,21.1
2016-06-13T07:03:24.047Z,20.99
2016-06-13T07:04:23.910Z,21.01
2016-06-13T07:05:24.085Z,21.1
2016-06-13T07:06:24.119Z,21.09
2016-06-13T07:07:24.154Z,21.14
2016-06-13T07:08:24.172Z,21.09
2016-06-13T07:09:24.191Z,20.98
2016-06-13T07:10:24.256Z,21.16
2016-06-13T07:11:24.259Z,21.09
2016-06-13T07:12:24.278Z,20.95
2016-06-13T07:13:24.453Z,21.07
2016-06-13T07:14:24.332Z,21.13
2016-06-13T07:15:24.350Z,20.98
2016-06-13T07:16:24.385Z,20.95
2016-06-13T07:17:24.403Z,21.01
2016-06-13T07:18:24.281Z,21.04
2016-06-13T07:19:24.472Z,21.04
2016-06-13T07:20:24.490Z,20.92
2016-06-13T07:21:24.525Z,21.01
2016-06-13T07:22:24.387Z,20.92
2016-06-13T07:23:24.562Z,20.95
2016-06-13T07:24:24.596Z,20.99
2016-06-13T07:25:24.647Z,20.98
2016-06-13T07:26:24.649Z,21.03
2016-06-13T07:27:25.152Z,21.01
2016-06-13T07:28:24.703Z,21.03
2016-06-13T07:29:24.722Z,20.99
2016-06-13T07:30:24.599Z,21.03
2016-06-13T07:31:24.774Z,21.06
2016-06-13T07:32:24.808Z,21.16
2016-06-13T07:33:24.827Z,21.04
2016-06-13T07:34:24.845Z,21.03
2016-06-13T07:35:24.880Z,21.04
2016-06-13T07:36:24.899Z,21.09
2016-06-13T07:37:24.777Z,21.1
2016-06-13T07:38:24.967Z,21.12
2016-06-13T07:39:24.986Z,21.24
2016-06-13T07:40:25.020Z,21.22
2016-06-13T07:41:25.056Z,21.17
2016-06-13T07:42:25.229Z,21.16
2016-06-13T07:43:24.952Z,21.32
2016-06-13T07:44:24.955Z,21.22
2016-06-13T07:45:25.176Z,21.22
2016-06-13T07:46:25.179Z,21.31
2016-06-13T07:47:25.199Z,21.32
2016-06-13T07:48:25.217Z,21.27
2016-06-13T07:49:25.283Z,21.32
2016-06-13T07:50:25.270Z,21.47
2016-06-13T07:51:25.148Z,21.54
2016-06-13T07:52:25.323Z,21.59
2016-06-13T07:53:25.358Z,21.53
2016-06-13T07:54:25.376Z,21.69
2016-06-13T07:55:25.254Z,21.71
2016-06-13T07:56:25.289Z,21.84
2016-06-13T07:57:25.495Z,21.86
2016-06-13T07:58:25.732Z,21.8
2016-06-13T07:59:25.361Z,21.82
2016-06-13T08:00:25.535Z,21.82
2016-06-13T08:01:25.570Z,21.86
2016-06-13T08:02:25.588Z,21.84
2016-06-13T08:03:25.623Z,21.91
2016-06-13T08:04:25.485Z,21.98
2016-06-13T08:05:25.675Z,21.88
2016-06-13T08:06:25.725Z,21.88
2016-06-13T08:07:25.728Z,21.88
2016-06-13T08:08:25.747Z,22.05
2016-06-13T08:09:25.782Z,21.98
2016-06-13T08:10:25.659Z,22.02
2016-06-13T08:11:25.834Z,21.91
2016-06-13T08:12:25.869Z,22.03
2016-06-13T08:13:26.325Z,22.05
2016-06-13T08:14:25.921Z,22.06
2016-06-13T08:15:25.941Z,22.18
2016-06-13T08:16:25.958Z,22.21
2016-06-13T08:17:25.994Z,22.3
2016-06-13T08:18:26.012Z,22.36
2016-06-13T08:19:26.047Z,22.39
2016-06-13T08:20:26.081Z,22.35
2016-06-13T08:21:26.100Z,22.55
2016-06-13T08:22:26.134Z,22.49
2016-06-13T08:23:26.153Z,22.45
2016-06-13T08:24:26.171Z,22.43
2016-06-13T08:25:26.049Z,22.36
2016-06-13T08:26:26.256Z,22.43
2016-06-13T08:27:27.290Z,22.37
2016-06-13T08:28:26.480Z,22.37
2016-06-13T08:29:26.312Z,22.36
2016-06-13T08:30:26.346Z,22.37
2016-06-13T08:31:26.365Z,22.37
2016-06-13T08:32:26.430Z,22.37
2016-06-13T08:33:26.418Z,22.37
2016-06-13T08:34:26.452Z,22.35
2016-06-13T08:35:26.502Z,22.37
2016-06-13T08:36:26.521Z,22.42
2016-06-13T08:37:26.540Z,22.4
2016-06-13T08:38:26.559Z,22.47
2016-06-13T08:39:26.592Z,22.49
2016-06-13T08:40:26.612Z,22.49
2016-06-13T08:41:26.646Z,22.51
2016-06-13T08:42:27.460Z,22.52
2016-06-13T08:43:27.324Z,22.62
2016-06-13T08:44:26.733Z,22.52
2016-06-13T08:45:26.767Z,22.6
2016-06-13T08:46:26.786Z,22.52
2016-06-13T08:47:26.820Z,22.54
2016-06-13T08:48:26.839Z,22.54
2016-06-13T08:49:26.874Z,22.47
2016-06-13T08:50:26.892Z,22.65
2016-06-13T08:51:26.926Z,22.55
2016-06-13T08:52:26.977Z,22.73
2016-06-13T08:53:26.980Z,22.79
2016-06-13T08:54:27.013Z,22.88
2016-06-13T08:55:27.033Z,22.88
2016-06-13T08:56:27.067Z,22.98
2016-06-13T08:57:27.085Z,23.12
2016-06-13T08:58:27.526Z,23.39
2016-06-13T08:59:26.998Z,23.46
2016-06-13T09:00:27.173Z,23.58
2016-06-13T09:01:27.208Z,23.61
2016-06-13T09:02:27.225Z,23.58
2016-06-13T09:03:27.260Z,23.65
2016-06-13T09:04:27.294Z,23.57
2016-06-13T09:05:27.314Z,23.63
2016-06-13T09:06:27.331Z,23.72
2016-06-13T09:07:27.366Z,23.76
2016-06-13T09:08:27.401Z,23.84
2016-06-13T09:09:27.419Z,23.88
2016-06-13T09:10:27.454Z,23.85
2016-06-13T09:11:27.487Z,23.78
2016-06-13T09:12:27.506Z,23.83
2016-06-13T09:13:27.588Z,23.8
2016-06-13T09:14:27.575Z,23.66
2016-06-13T09:15:27.594Z,23.73
2016-06-13T09:16:27.629Z,23.76
2016-06-13T09:17:27.646Z,23.73
2016-06-13T09:18:27.681Z,23.72
2016-06-13T09:19:27.716Z,23.72
2016-06-13T09:20:27.735Z,23.75
2016-06-13T09:21:27.768Z,23.78
2016-06-13T09:22:27.803Z,23.91
2016-06-13T09:23:27.681Z,23.84
2016-06-13T09:24:27.855Z,23.9
2016-06-13T09:25:27.890Z,23.8
2016-06-13T09:26:27.909Z,23.79
2016-06-13T09:27:27.943Z,23.83
2016-06-13T09:28:28.040Z,23.85
2016-06-13T09:29:27.997Z,23.93
2016-06-13T09:30:28.015Z,23.85
2016-06-13T09:31:28.049Z,23.98
2016-06-13T09:32:28.084Z,23.97
2016-06-13T09:33:28.103Z,24.06
2016-06-13T09:34:28.137Z,24.24
2016-06-13T09:35:28.156Z,24.28
2016-06-13T09:36:28.220Z,24.3
2016-06-13T09:37:28.240Z,24.37
2016-06-13T09:38:28.274Z,24.34
2016-06-13T09:39:28.293Z,24.3
2016-06-13T09:40:28.296Z,24.39
2016-06-13T09:41:28.330Z,24.4
2016-06-13T09:42:28.364Z,24.28
2016-06-13T09:43:28.384Z,24.35
2016-06-13T09:44:28.418Z,24.42
2016-06-13T09:45:28.451Z,24.27
2016-06-13T09:46:28.470Z,24.27
2016-06-13T09:47:28.505Z,24.25
2016-06-13T09:48:28.524Z,24.27
2016-06-13T09:49:28.557Z,24.34
2016-06-13T09:50:28.592Z,24.37
2016-06-13T09:51:28.611Z,24.34
2016-06-13T09:52:28.645Z,24.35
2016-06-13T09:53:28.679Z,24.31
2016-06-13T09:54:28.698Z,24.31
2016-06-13T09:55:28.733Z,24.42
2016-06-13T09:56:28.751Z,24.37
2016-06-13T09:57:28.785Z,24.35
2016-06-13T09:58:29.398Z,24.47
2016-06-13T09:59:28.838Z,24.4
2016-06-13T10:00:28.872Z,24.45
2016-06-13T10:01:28.922Z,24.47
2016-06-13T10:02:28.926Z,24.55
2016-06-13T10:03:28.960Z,24.5
2016-06-13T10:04:29.009Z,24.55
2016-06-13T10:05:29.029Z,24.49
2016-06-13T10:06:29.047Z,24.57
2016-06-13T10:07:29.082Z,24.4
2016-06-13T10:08:29.116Z,24.3
2016-06-13T10:09:29.136Z,24.1
2016-06-13T10:10:29.169Z,24.12
2016-06-13T10:11:29.187Z,24.13
2016-06-13T10:12:29.238Z,24.12
2016-06-13T10:13:29.101Z,24.05
2016-06-13T10:14:29.275Z,24.02
2016-06-13T10:15:29.309Z,24
2016-06-13T10:16:29.344Z,23.95
2016-06-13T10:17:29.378Z,23.88
2016-06-13T10:18:29.397Z,23.94
2016-06-13T10:19:29.430Z,23.95
2016-06-13T10:20:29.450Z,24
2016-06-13T10:21:29.500Z,24.03
2016-06-13T10:22:29.503Z,24.09
2016-06-13T10:23:29.537Z,24.15
2016-06-13T10:24:29.572Z,24.15
2016-06-13T10:25:29.605Z,24.27
2016-06-13T10:26:29.624Z,24.3
2016-06-13T10:27:29.658Z,24.28
2016-06-13T10:28:30.365Z,24.18
2016-06-13T10:29:29.712Z,24.3
2016-06-13T10:30:29.745Z,24.32
2016-06-13T10:31:29.781Z,24.28
2016-06-13T10:32:29.799Z,24.35
2016-06-13T10:33:29.834Z,24.31
2016-06-13T10:34:29.852Z,24.35
2016-06-13T10:35:29.887Z,24.39
2016-06-13T10:36:29.921Z,24.49
2016-06-13T10:37:29.939Z,24.52
2016-06-13T10:38:29.974Z,24.45
2016-06-13T10:39:30.008Z,24.45
2016-06-13T10:40:30.026Z,24.39
2016-06-13T10:41:30.046Z,24.37
2016-06-13T10:42:30.080Z,24.46
2016-06-13T10:43:29.974Z,24.5
2016-06-13T10:44:30.148Z,24.53
2016-06-13T10:45:30.183Z,24.49
2016-06-13T10:46:30.202Z,24.43
2016-06-13T10:47:30.220Z,24.34
2016-06-13T10:48:30.255Z,24.42
2016-06-13T10:49:30.133Z,24.43
2016-06-13T10:50:30.307Z,24.5
2016-06-13T10:51:30.342Z,24.46
2016-06-13T10:52:30.220Z,24.55
2016-06-13T10:53:30.395Z,24.47
2016-06-13T10:54:30.429Z,24.45
2016-06-13T10:55:30.464Z,24.46
2016-06-13T10:56:30.498Z,24.45
2016-06-13T10:57:30.517Z,24.37
2016-06-13T10:58:30.395Z,24.37
2016-06-13T10:59:30.570Z,24.49
2016-06-13T11:00:30.604Z,24.42
2016-06-13T11:01:30.623Z,24.5
2016-06-13T11:02:30.657Z,24.5
2016-06-13T11:03:30.676Z,24.6
2016-06-13T11:04:30.585Z,24.62
2016-06-13T11:05:30.744Z,24.62
2016-06-13T11:06:30.779Z,24.64
2016-06-13T11:07:30.798Z,24.57
2016-06-13T11:08:30.832Z,24.6
2016-06-13T11:09:30.866Z,24.58
2016-06-13T11:10:30.885Z,24.62
2016-06-13T11:11:30.763Z,24.64
2016-06-13T11:12:30.954Z,24.6
2016-06-13T11:13:31.894Z,24.6
2016-06-13T11:14:31.006Z,24.61
2016-06-13T11:15:31.025Z,24.6
2016-06-13T11:16:31.059Z,24.61
2016-06-13T11:17:30.937Z,24.57
2016-06-13T11:18:31.112Z,24.55
2016-06-13T11:19:31.146Z,24.52
2016-06-13T11:20:31.166Z,24.47
2016-06-13T11:21:31.200Z,24.46
2016-06-13T11:22:31.235Z,24.52
2016-06-13T11:23:31.252Z,24.43
2016-06-13T11:24:31.287Z,24.47
2016-06-13T11:25:31.322Z,24.52
2016-06-13T11:26:31.387Z,24.45
2016-06-13T11:27:31.390Z,24.6
2016-06-13T11:28:32.128Z,24.6
2016-06-13T11:29:31.427Z,24.58
2016-06-13T11:30:33.696Z,24.55
2016-06-13T11:31:31.496Z,24.64
2016-06-13T11:32:31.515Z,24.6
2016-06-13T11:33:31.549Z,24.61
2016-06-13T11:34:31.584Z,24.68
2016-06-13T11:35:31.462Z,24.77
2016-06-13T11:36:31.637Z,24.91
2016-06-13T11:37:31.656Z,24.81
2016-06-13T11:38:31.690Z,24.77
2016-06-13T11:39:31.724Z,24.8
2016-06-13T11:40:31.586Z,24.78
2016-06-13T11:41:31.777Z,24.77
2016-06-13T11:42:31.811Z,24.77
2016-06-13T11:43:31.830Z,24.65
2016-06-13T11:44:31.865Z,24.77
2016-06-13T11:45:31.899Z,24.69
2016-06-13T11:46:31.933Z,24.64
2016-06-13T11:47:31.951Z,24.71
2016-06-13T11:48:31.970Z,24.77
2016-06-13T11:49:32.004Z,24.67
2016-06-13T11:50:32.038Z,24.58
2016-06-13T11:51:32.058Z,24.61
2016-06-13T11:52:32.092Z,24.55
2016-06-13T11:53:32.126Z,24.61
2016-06-13T11:54:32.145Z,24.58
2016-06-13T11:55:32.179Z,24.58
2016-06-13T11:56:32.245Z,24.6
2016-06-13T11:57:32.233Z,24.45
2016-06-13T11:58:32.360Z,24.43
2016-06-13T11:59:32.301Z,24.47
2016-06-13T12:00:32.319Z,24.61
2016-06-13T12:01:32.339Z,24.5
2016-06-13T12:02:32.404Z,24.55
2016-06-13T12:03:32.266Z,24.58
2016-06-13T12:04:32.442Z,24.71
2016-06-13T12:05:32.475Z,24.77
2016-06-13T12:06:32.494Z,24.71
2016-06-13T12:07:32.529Z,24.69
2016-06-13T12:08:32.407Z,24.64
2016-06-13T12:09:32.582Z,24.64
2016-06-13T12:10:32.616Z,24.52
2016-06-13T12:11:32.650Z,24.42
2016-06-13T12:12:32.684Z,24.47
2016-06-13T12:13:33.500Z,24.4
2016-06-13T12:14:32.597Z,24.27
2016-06-13T12:15:32.757Z,24.31
2016-06-13T12:16:32.790Z,24.21
2016-06-13T12:17:32.653Z,24.24
2016-06-13T12:18:32.844Z,24.3
2016-06-13T12:19:32.863Z,24.27
2016-06-13T12:20:32.897Z,24.28
2016-06-13T12:21:32.931Z,24.22
2016-06-13T12:22:32.950Z,24.3
2016-06-13T12:23:32.984Z,24.3
2016-06-13T12:24:33.018Z,24.28
2016-06-13T12:25:33.054Z,24.21
2016-06-13T12:26:33.071Z,24.28
2016-06-13T12:27:33.105Z,24.25
2016-06-13T12:28:33.344Z,24.27
2016-06-13T12:29:33.784Z,24.21
2016-06-13T12:30:33.194Z,24.24
2016-06-13T12:31:33.242Z,24.13
2016-06-13T12:32:33.246Z,24.16
2016-06-13T12:33:33.312Z,24.08
2016-06-13T12:34:33.371Z,24.02
2016-06-13T12:35:33.447Z,23.94
2016-06-13T12:36:33.505Z,23.85
2016-06-13T12:37:33.580Z,23.78
2016-06-13T12:38:33.635Z,23.8
2016-06-13T12:39:33.512Z,23.9
2016-06-13T12:40:33.718Z,23.88
2016-06-13T12:41:33.767Z,23.75
2016-06-13T12:42:33.800Z,23.84
2016-06-13T12:43:33.842Z,23.76
2016-06-13T12:44:33.881Z,23.72
2016-06-13T12:45:33.905Z,23.73
2016-06-13T12:46:33.944Z,23.76
2016-06-13T12:47:33.983Z,23.75
2016-06-13T12:48:34.005Z,23.61
2016-06-13T12:49:34.041Z,23.79
2016-06-13T12:50:34.062Z,23.65
2016-06-13T12:51:34.098Z,23.65
2016-06-13T12:52:34.134Z,23.57
2016-06-13T12:53:34.169Z,23.5
2016-06-13T12:54:34.189Z,23.48